Time;durP1;ratioP1;P1;durP2;ratioP2;P2;SDS_P1;SDS_P2;PMS_P1;PMS_P2;Temp;Humidity;BMP_temperature;BMP_pressure;BME280_temperature;BME280_humidity;BME280_pressure;Samples;Min_cycle;Max_cycle;Signal;HPM_P1;HPM_P2
2023/07/27 00:01:35;;;;;;;9.40;3.77;;;;;;;18.88;100.00;98230.44;5047618;28;20559;-66
2023/07/27 00:04:02;;;;;;;10.10;3.80;;;;;;;18.84;100.00;98224.06;5047235;28;20213;-66
2023/07/27 00:06:30;;;;;;;7.77;3.20;;;;;;;18.88;100.00;98225.28;5047220;28;20197;-66
2023/07/27 00:08:57;;;;;;;6.83;3.27;;;;;;;18.85;100.00;98225.66;5047080;28;20210;-67
2023/07/27 00:11:24;;;;;;;5.07;3.03;;;;;;;18.78;100.00;98228.19;5047137;28;20206;-66
2023/07/27 00:13:51;;;;;;;6.83;3.23;;;;;;;18.86;100.00;98232.44;5046728;28;20491;-66
2023/07/27 00:16:18;;;;;;;5.37;3.10;;;;;;;18.85;100.00;98236.00;5047215;28;20687;-66
2023/07/27 00:18:45;;;;;;;5.30;2.67;;;;;;;18.81;100.00;98240.75;5047045;28;20213;-66
2023/07/27 00:21:11;;;;;;;8.87;3.30;;;;;;;18.81;100.00;98239.97;5046864;28;20211;-66
2023/07/27 00:23:40;;;;;;;8.73;3.27;;;;;;;18.72;100.00;98242.63;5047210;28;20254;-66
2023/07/27 00:26:07;;;;;;;9.43;3.37;;;;;;;18.74;100.00;98255.44;5047122;28;20195;-66
2023/07/27 00:28:33;;;;;;;7.13;2.70;;;;;;;18.69;100.00;98257.75;5046927;28;20205;-66
2023/07/27 00:31:00;;;;;;;7.40;2.97;;;;;;;18.66;100.00;98247.75;5046868;28;20604;-66
2023/07/27 00:33:32;;;;;;;6.37;2.80;;;;;;;18.64;100.00;98260.88;5046670;28;20205;-66
2023/07/27 00:36:00;;;;;;;8.53;2.93;;;;;;;18.53;100.00;98243.25;5046897;28;20241;-66
2023/07/27 00:38:27;;;;;;;8.77;2.93;;;;;;;18.59;100.00;98263.22;5046712;28;20249;-66
2023/07/27 00:40:55;;;;;;;7.93;2.30;;;;;;;18.58;100.00;98271.16;5046687;28;20197;-66
2023/07/27 00:43:22;;;;;;;8.87;2.87;;;;;;;18.58;100.00;98271.16;5046722;28;20221;-65
2023/07/27 00:45:50;;;;;;;9.37;2.90;;;;;;;18.54;100.00;98281.06;5047043;28;20202;-66
2023/07/27 00:48:17;;;;;;;8.07;2.70;;;;;;;18.55;100.00;98288.66;5046748;28;20205;-66
2023/07/27 00:50:45;;;;;;;7.97;2.73;;;;;;;18.56;100.00;98292.06;5046615;28;20206;-67
2023/07/27 00:53:14;;;;;;;5.27;2.33;;;;;;;18.54;100.00;98284.47;5046631;28;20210;-66
2023/07/27 00:55:41;;;;;;;6.77;2.30;;;;;;;18.48;100.00;98295.53;5046393;28;20389;-66
2023/07/27 00:58:10;;;;;;;7.33;2.27;;;;;;;18.49;100.00;98293.75;5046897;28;20523;-66
2023/07/27 01:00:39;;;;;;;5.67;2.30;;;;;;;18.54;100.00;98288.84;5046516;28;20212;-67
2023/07/27 01:03:05;;;;;;;8.77;2.60;;;;;;;18.45;100.00;98297.69;5046631;28;20201;-66
2023/07/27 01:05:34;;;;;;;7.47;2.50;;;;;;;18.47;100.00;98300.88;5046148;28;20717;-66
2023/07/27 01:08:00;;;;;;;9.80;2.43;;;;;;;18.42;100.00;98295.47;5046033;28;20202;-66
2023/07/27 01:10:40;;;;;;;8.90;2.90;;;;;;;18.41;100.00;98301.63;5046273;28;20209;-66
2023/07/27 01:13:15;;;;;;;7.53;2.30;;;;;;;18.38;100.00;98296.78;5046213;28;20291;-67
2023/07/27 01:15:48;;;;;;;6.37;2.40;;;;;;;18.28;100.00;98287.53;5046244;28;20242;-67
2023/07/27 01:18:20;;;;;;;7.57;2.50;;;;;;;18.27;100.00;98298.88;5046211;28;20198;-66
2023/07/27 01:20:54;;;;;;;6.13;2.30;;;;;;;18.26;100.00;98286.91;5046180;28;20222;-66
2023/07/27 01:23:45;;;;;;;10.57;3.10;;;;;;;18.28;100.00;98300.47;5046425;28;20188;-66
2023/07/27 01:26:31;;;;;;;6.87;2.40;;;;;;;18.20;100.00;98303.13;5044932;28;20210;-66
2023/07/27 01:29:13;;;;;;;8.87;2.70;;;;;;;18.12;100.00;98303.22;5046298;27;20204;-67
2023/07/27 01:31:44;;;;;;;4.97;2.27;;;;;;;18.13;100.00;98301.47;5046029;28;20252;-67
2023/07/27 01:34:17;;;;;;;8.20;2.70;;;;;;;18.16;100.00;98301.91;5045785;28;20209;-67
2023/07/27 01:36:49;;;;;;;7.47;2.60;;;;;;;18.08;100.00;98302.00;5045963;28;20197;-66
2023/07/27 01:39:20;;;;;;;8.03;2.80;;;;;;;18.07;100.00;98300.38;5045854;28;20197;-67
2023/07/27 01:41:47;;;;;;;5.57;2.40;;;;;;;18.08;100.00;98304.56;5046440;28;20677;-67
2023/07/27 01:44:16;;;;;;;3.63;2.67;;;;;;;18.04;100.00;98306.72;5045598;28;20215;-66
2023/07/27 01:46:45;;;;;;;5.50;2.37;;;;;;;18.04;100.00;98311.09;5045788;28;20216;-66
2023/07/27 01:49:14;;;;;;;9.20;3.10;;;;;;;18.00;100.00;98299.47;5045659;28;20273;-66
2023/07/27 01:51:42;;;;;;;8.13;2.90;;;;;;;18.02;100.00;98311.25;5045528;28;20601;-66
2023/07/27 01:54:10;;;;;;;6.40;2.50;;;;;;;17.99;100.00;98310.81;5045572;28;20205;-66
2023/07/27 01:56:38;;;;;;;8.60;3.10;;;;;;;18.02;100.00;98313.84;5045453;28;20711;-66
2023/07/27 01:59:07;;;;;;;10.77;3.10;;;;;;;17.94;100.00;98316.50;5045780;28;20229;-66
2023/07/27 02:01:36;;;;;;;8.87;3.20;;;;;;;17.97;100.00;98325.69;5045596;28;20206;-66
2023/07/27 02:04:06;;;;;;;9.17;3.00;;;;;;;18.00;100.00;98320.16;5045319;28;20833;-65
2023/07/27 02:06:33;;;;;;;9.10;3.30;;;;;;;17.93;100.00;98324.47;5045312;28;20229;-66
2023/07/27 02:09:00;;;;;;;8.83;3.07;;;;;;;17.88;100.00;98328.34;5045428;28;20232;-66
2023/07/27 02:11:28;;;;;;;9.40;3.13;;;;;;;17.90;100.00;98327.41;5045378;28;20240;-65
2023/07/27 02:14:00;;;;;;;10.50;3.13;;;;;;;17.83;100.00;98325.53;5045247;28;20211;-66
2023/07/27 02:16:35;;;;;;;9.60;3.07;;;;;;;17.84;100.00;98334.06;5045114;28;20289;-66
2023/07/27 02:19:04;;;;;;;8.33;2.87;;;;;;;17.85;100.00;98328.72;5045311;28;20200;-66
2023/07/27 02:21:34;;;;;;;10.90;3.20;;;;;;;17.81;100.00;98337.00;5045126;28;20212;-66
2023/07/27 02:24:02;;;;;;;11.20;3.17;;;;;;;17.76;100.00;98340.09;5045126;28;20599;-66
2023/07/27 02:26:29;;;;;;;10.03;3.33;;;;;;;17.87;100.00;98344.88;5044983;28;20714;-65
2023/07/27 02:28:56;;;;;;;8.50;3.03;;;;;;;17.78;100.00;98348.50;5045140;28;20197;-66
2023/07/27 02:31:24;;;;;;;10.43;3.27;;;;;;;17.80;100.00;98346.56;5045230;28;20208;-66
2023/07/27 02:33:51;;;;;;;9.40;3.30;;;;;;;17.80;100.00;98346.56;5045034;28;20204;-67
2023/07/27 02:36:17;;;;;;;8.80;3.40;;;;;;;17.81;100.00;98345.56;5044772;28;20236;-66
2023/07/27 03:26:50;;;;;;;4.67;2.30;;;;;;;18.00;100.00;98356.38;5084208;27;20945;-65
2023/07/27 03:29:17;;;;;;;4.83;2.50;;;;;;;17.88;100.00;98356.81;5083881;28;20202;-66
2023/07/27 03:31:44;;;;;;;2.77;2.10;;;;;;;17.80;100.00;98354.31;5084942;28;20207;-65
2023/07/27 03:34:11;;;;;;;4.70;2.17;;;;;;;17.73;100.00;98355.94;5085309;28;20200;-66
2023/07/27 03:36:38;;;;;;;2.20;1.93;;;;;;;17.70;100.00;98361.47;5085356;28;20234;-66
2023/07/27 03:39:04;;;;;;;2.20;1.87;;;;;;;17.67;100.00;98359.22;5085041;28;20191;-65
2023/07/27 03:41:31;;;;;;;2.67;2.10;;;;;;;17.60;100.00;98366.09;5085161;28;20218;-65
2023/07/27 03:43:59;;;;;;;2.00;1.80;;;;;;;17.56;100.00;98372.56;5084967;28;20701;-65
2023/07/27 03:46:26;;;;;;;2.70;2.03;;;;;;;17.56;100.00;98375.16;5084916;28;20203;-66
2023/07/27 03:48:54;;;;;;;6.00;2.00;;;;;;;17.54;100.00;98375.34;5085186;28;20203;-65
2023/07/27 03:51:21;;;;;;;2.70;2.10;;;;;;;17.49;100.00;98379.41;5085016;28;20201;-65
2023/07/27 03:53:47;;;;;;;2.70;2.00;;;;;;;17.42;100.00;98385.25;5084768;28;20284;-65
2023/07/27 03:56:14;;;;;;;2.37;1.90;;;;;;;17.39;100.00;98383.03;5084663;28;20239;-65
2023/07/27 03:58:41;;;;;;;2.93;2.07;;;;;;;17.36;100.00;98380.75;5084688;28;20203;-65
2023/07/27 04:01:09;;;;;;;2.90;2.30;;;;;;;17.38;100.00;98373.66;5084642;28;20206;-65
2023/07/27 04:03:36;;;;;;;3.77;2.27;;;;;;;17.37;100.00;98366.88;5084630;28;20698;-65
2023/07/27 04:06:03;;;;;;;2.50;2.20;;;;;;;17.38;100.00;98368.47;5084618;28;20683;-65
2023/07/27 04:08:30;;;;;;;4.60;2.57;;;;;;;17.43;100.00;98371.38;5084657;28;20195;-64
2023/07/27 04:10:57;;;;;;;2.50;2.10;;;;;;;17.42;100.00;98364.59;5084489;28;20666;-65
2023/07/27 04:13:24;;;;;;;2.83;2.10;;;;;;;17.45;100.00;98372.97;5084412;28;20206;-65
2023/07/27 04:15:50;;;;;;;2.97;2.53;;;;;;;17.54;100.00;98382.25;5084323;28;20225;-65
2023/07/27 04:18:19;;;;;;;2.87;2.17;;;;;;;17.55;100.00;98389.06;5084354;28;20206;-65
2023/07/27 04:20:45;;;;;;;3.00;2.13;;;;;;;17.58;100.00;98388.72;5084278;28;20253;-65
2023/07/27 04:23:12;;;;;;;3.27;2.00;;;;;;;17.64;100.00;98391.41;5084308;28;20210;-65
2023/07/27 04:25:39;;;;;;;2.57;1.97;;;;;;;17.67;100.00;98392.84;5084070;28;20631;-65
2023/07/27 04:28:06;;;;;;;2.30;2.00;;;;;;;17.75;100.00;98389.41;5084332;28;20202;-65
2023/07/27 04:30:33;;;;;;;3.10;2.10;;;;;;;17.75;100.00;98390.19;5084600;28;20215;-65
2023/07/27 04:33:00;;;;;;;2.60;2.10;;;;;;;17.76;100.00;98402.13;5084175;28;20201;-65
2023/07/27 04:35:28;;;;;;;1.97;1.77;;;;;;;17.81;100.00;98399.88;5084021;28;20234;-65
2023/07/27 04:37:55;;;;;;;2.27;1.80;;;;;;;17.77;100.00;98408.94;5071671;28;20207;-65
2023/07/27 04:40:22;;;;;;;1.97;1.83;;;;;;;17.80;100.00;98403.44;5070416;28;20196;-65
2023/07/27 04:42:49;;;;;;;2.93;2.00;;;;;;;17.80;100.00;98411.19;5070807;28;20191;-65
2023/07/27 04:45:16;;;;;;;4.33;2.00;;;;;;;17.83;100.00;98417.78;5070395;28;20203;-65
2023/07/27 04:47:42;;;;;;;2.77;2.03;;;;;;;17.86;100.00;98407.91;5070335;28;20202;-66
2023/07/27 04:50:10;;;;;;;2.57;1.97;;;;;;;17.82;100.00;98411.81;5070304;28;20200;-65
2023/07/27 04:52:38;;;;;;;4.33;2.20;;;;;;;17.82;100.00;98398.88;5070168;28;20607;-65
2023/07/27 04:55:06;;;;;;;2.90;2.23;;;;;;;17.78;100.00;98404.59;5070240;28;20225;-65
2023/07/27 04:57:33;;;;;;;2.33;1.77;;;;;;;17.81;100.00;98405.03;5070197;28;20209;-65
2023/07/27 05:00:00;;;;;;;2.97;1.80;;;;;;;17.82;100.00;98406.63;5070466;28;20200;-65
2023/07/27 05:02:27;;;;;;;2.03;1.73;;;;;;;17.77;100.00;98419.28;5070168;28;20688;-66
2023/07/27 05:04:53;;;;;;;1.60;1.50;;;;;;;17.75;100.00;98426.41;5070034;28;20209;-64
2023/07/27 05:07:22;;;;;;;7.83;1.40;;;;;;;17.81;100.00;98440.44;5070174;28;20223;-65
2023/07/27 05:09:50;;;;;;;1.40;1.30;;;;;;;17.86;100.00;98449.28;5070380;28;20200;-66
2023/07/27 05:12:17;;;;;;;1.37;1.23;;;;;;;17.84;100.00;98460.78;5070266;28;20218;-65
2023/07/27 05:14:43;;;;;;;1.50;1.40;;;;;;;17.77;100.00;98450.31;5070085;28;20199;-65
2023/07/27 05:17:10;;;;;;;1.30;1.20;;;;;;;17.79;100.00;98453.53;5069519;28;20235;-65
2023/07/27 05:19:37;;;;;;;1.20;1.10;;;;;;;17.81;100.00;98456.75;5069678;28;20227;-65
2023/07/27 05:22:04;;;;;;;1.40;1.30;;;;;;;17.76;100.00;98471.94;5069672;28;20430;-65
2023/07/27 05:24:31;;;;;;;1.40;1.30;;;;;;;17.80;100.00;98460.34;5069793;28;20198;-65
2023/07/27 05:26:59;;;;;;;1.23;1.10;;;;;;;17.81;100.00;98474.84;5069615;28;20683;-66
2023/07/27 05:29:26;;;;;;;1.20;1.10;;;;;;;17.82;100.00;98473.06;5069609;28;20204;-66
2023/07/27 07:01:08;;;;;;;2.63;1.63;;;;;;;19.19;94.50;98492.66;5125912;27;20563;-66
2023/07/27 07:03:35;;;;;;;1.97;1.77;;;;;;;19.09;94.27;98486.97;5126171;27;20197;-66
2023/07/27 07:06:02;;;;;;;2.47;2.10;;;;;;;18.99;95.26;98501.97;5126252;27;20261;-64
2023/07/27 07:08:30;;;;;;;2.23;1.83;;;;;;;18.92;93.96;98495.91;5125772;27;20212;-65
2023/07/27 07:10:56;;;;;;;4.10;1.93;;;;;;;18.87;94.85;98487.88;5125402;27;20252;-65
2023/07/27 07:13:24;;;;;;;3.50;2.20;;;;;;;18.94;96.30;98489.59;5125337;27;20205;-64
2023/07/27 07:15:51;;;;;;;2.23;1.93;;;;;;;19.00;95.93;98493.25;5125636;27;20590;-65
2023/07/27 07:18:19;;;;;;;2.70;1.80;;;;;;;19.16;97.55;98503.41;5125937;27;20205;-65
2023/07/27 07:20:46;;;;;;;3.07;1.83;;;;;;;19.07;93.89;98540.75;5126031;27;20201;-67
2023/07/27 07:23:13;;;;;;;2.63;2.07;;;;;;;18.98;94.70;98531.47;5125608;27;20208;-65
2023/07/27 07:25:40;;;;;;;1.50;1.40;;;;;;;19.03;93.49;98539.53;5125676;27;20201;-65
2023/07/27 07:28:07;;;;;;;1.73;1.50;;;;;;;19.02;93.89;98537.88;5125825;27;20342;-65
2023/07/27 07:30:37;;;;;;;1.80;1.60;;;;;;;19.02;92.74;98548.25;5125719;27;20330;-65
2023/07/27 07:33:04;;;;;;;2.20;1.70;;;;;;;18.85;94.13;98541.63;5125670;27;20202;-65
2023/07/27 07:35:38;;;;;;;2.37;1.80;;;;;;;18.91;95.01;98543.53;5125538;27;20223;-65
2023/07/27 07:38:05;;;;;;;1.87;1.60;;;;;;;18.83;92.40;98559.16;5125522;27;20695;-66
2023/07/27 07:40:32;;;;;;;2.43;1.67;;;;;;;18.71;92.80;98569.91;5125357;27;20300;-65
2023/07/27 07:42:58;;;;;;;2.63;1.83;;;;;;;18.57;91.51;98577.66;5125213;27;20197;-65
2023/07/27 07:45:26;;;;;;;2.30;1.80;;;;;;;18.68;94.21;98580.63;5125036;27;20223;-65
2023/07/27 07:47:53;;;;;;;2.20;1.80;;;;;;;18.71;92.75;98571.69;5125130;27;20261;-66
2023/07/27 07:50:19;;;;;;;2.40;1.70;;;;;;;18.82;95.32;98578.25;5125154;27;20232;-65
2023/07/27 07:52:48;;;;;;;1.63;1.53;;;;;;;18.95;95.24;98578.47;5125253;27;20200;-65
2023/07/27 07:55:15;;;;;;;1.60;1.50;;;;;;;19.06;93.13;98580.63;5124992;27;20208;-65
2023/07/27 07:57:41;;;;;;;1.90;1.50;;;;;;;19.17;92.19;98593.13;5125031;27;20207;-66
2023/07/27 08:00:09;;;;;;;1.93;1.70;;;;;;;19.16;91.43;98590.72;5121981;27;20672;-66
2023/07/27 08:02:36;;;;;;;1.80;1.57;;;;;;;19.22;92.29;98588.19;5111313;28;20191;-65
2023/07/27 08:05:03;;;;;;;2.50;1.70;;;;;;;19.33;91.74;98589.56;5111351;28;20464;-65
2023/07/27 08:07:30;;;;;;;2.40;1.67;;;;;;;19.41;92.29;98588.66;5111223;28;20623;-65
2023/07/27 08:09:59;;;;;;;2.13;1.73;;;;;;;19.56;94.44;98581.69;5111284;28;20282;-66
2023/07/27 08:12:25;;;;;;;3.13;1.50;;;;;;;19.66;92.39;98582.25;5111099;28;20198;-65
2023/07/27 08:14:53;;;;;;;1.70;1.50;;;;;;;19.76;91.50;98591.53;5111296;28;20483;-65
2023/07/27 08:17:19;;;;;;;1.83;1.60;;;;;;;19.71;92.13;98588.66;5110518;28;20230;-65
2023/07/27 08:19:46;;;;;;;2.03;1.80;;;;;;;19.68;91.66;98582.84;5110509;28;20221;-66
2023/07/27 08:22:13;;;;;;;4.17;1.50;;;;;;;19.58;90.33;98592.69;5110768;28;20201;-66
2023/07/27 08:24:40;;;;;;;2.30;1.60;;;;;;;19.61;90.65;98583.75;5110735;28;20190;-66
2023/07/27 08:27:08;;;;;;;2.43;1.80;;;;;;;19.65;91.97;98580.63;5110781;28;20276;-66
2023/07/27 08:29:35;;;;;;;1.50;1.40;;;;;;;19.66;91.28;98577.06;5111277;28;20236;-65
2023/07/27 08:32:02;;;;;;;6.00;1.70;;;;;;;19.75;91.29;98585.53;5110672;28;20210;-65
2023/07/27 08:34:29;;;;;;;3.33;1.80;;;;;;;19.81;91.15;98589.16;5110614;28;20200;-65
2023/07/27 08:36:56;;;;;;;1.80;1.70;;;;;;;19.85;91.63;98587.84;5110759;28;20200;-65
2023/07/27 08:39:23;;;;;;;2.20;1.70;;;;;;;19.97;92.28;98595.94;5110841;28;20290;-66
2023/07/27 08:41:50;;;;;;;4.53;1.80;;;;;;;20.13;93.08;98588.75;5110899;28;20201;-66
2023/07/27 08:44:18;;;;;;;1.97;1.60;;;;;;;20.25;91.50;98602.03;5110666;28;20196;-66
2023/07/27 08:46:46;;;;;;;2.30;1.63;;;;;;;20.33;91.65;98603.69;5110541;28;20210;-66
2023/07/27 08:49:15;;;;;;;1.70;1.60;;;;;;;20.49;91.53;98603.44;5110517;28;20623;-66
2023/07/27 08:51:44;;;;;;;1.37;1.23;;;;;;;20.63;90.70;98603.59;5110321;28;20205;-65
2023/07/27 08:54:11;;;;;;;1.40;1.30;;;;;;;20.84;90.47;98606.16;5110269;28;20265;-65
2023/07/27 08:56:38;;;;;;;3.93;1.37;;;;;;;20.95;87.47;98612.66;5110566;28;20204;-65
2023/07/27 08:59:05;;;;;;;2.00;1.57;;;;;;;21.00;87.42;98600.69;5110175;28;20213;-65
2023/07/27 09:01:33;;;;;;;4.60;1.23;;;;;;;21.05;88.24;98612.31;5110519;28;20205;-65
2023/07/27 09:04:00;;;;;;;1.73;1.50;;;;;;;21.18;85.91;98602.00;5110130;28;20746;-65
2023/07/27 09:06:39;;;;;;;2.63;1.30;;;;;;;21.22;84.68;98593.63;5110056;28;20262;-65
2023/07/27 09:09:16;;;;;;;1.80;1.40;;;;;;;21.11;83.59;98590.75;5109862;28;20205;-66
2023/07/27 09:11:43;;;;;;;1.90;1.60;;;;;;;21.05;84.10;98587.09;5109278;28;20240;-66
2023/07/27 09:14:11;;;;;;;1.40;1.30;;;;;;;21.13;84.56;98583.56;5109924;28;20207;-66
2023/07/27 09:16:39;;;;;;;1.43;1.33;;;;;;;21.12;84.25;98576.75;5109813;28;20219;-66
2023/07/27 09:19:06;;;;;;;2.30;1.47;;;;;;;21.16;83.64;98572.78;5109861;28;20291;-66
2023/07/27 09:21:41;;;;;;;4.13;1.50;;;;;;;21.20;84.89;98580.00;5109870;28;20640;-65
2023/07/27 09:24:12;;;;;;;1.50;1.40;;;;;;;21.22;84.56;98578.00;5110070;28;20278;-66
2023/07/27 09:26:46;;;;;;;1.90;1.60;;;;;;;21.44;85.17;98576.16;5110202;28;20199;-66
2023/07/27 09:29:14;;;;;;;1.40;1.20;;;;;;;21.41;82.29;98586.97;5109510;28;20212;-67
2023/07/27 09:31:46;;;;;;;1.93;1.53;;;;;;;21.39;81.84;98599.34;5109605;28;20205;-67
2023/07/27 09:34:13;;;;;;;1.53;1.33;;;;;;;21.42;80.26;98588.56;5109644;28;20191;-66
2023/07/27 09:36:41;;;;;;;1.73;1.40;;;;;;;21.58;82.92;98592.63;5109472;28;20196;-66
2023/07/27 09:39:09;;;;;;;1.87;1.47;;;;;;;21.61;80.12;98602.66;5109541;28;20201;-67
2023/07/27 09:41:36;;;;;;;1.63;1.40;;;;;;;21.68;81.10;98594.88;5109319;28;20198;-65
2023/07/27 09:44:03;;;;;;;2.93;1.73;;;;;;;21.76;80.62;98605.13;5109613;28;20233;-66
2023/07/27 09:46:31;;;;;;;2.07;1.50;;;;;;;21.68;78.11;98602.69;5109209;28;20195;-66
2023/07/27 09:48:59;;;;;;;2.03;1.60;;;;;;;21.93;81.61;98601.19;5108967;28;20717;-66
2023/07/27 09:51:27;;;;;;;2.93;1.60;;;;;;;22.17;79.49;98614.69;5108872;28;20240;-66
2023/07/27 09:53:55;;;;;;;1.60;1.50;;;;;;;22.32;81.78;98617.91;5108705;28;20201;-66
2023/07/27 09:56:22;;;;;;;2.17;1.60;;;;;;;22.56;79.52;98615.72;5108943;28;20224;-66
2023/07/27 09:58:50;;;;;;;2.67;1.40;;;;;;;22.72;77.87;98615.34;5108644;28;20235;-66
2023/07/27 10:17:04;;;;;;;1.42;1.15;;;;;;;23.66;63.78;98602.94;5125423;27;20553;-67
2023/07/27 10:19:43;;;;;;;4.43;1.35;;;;;;;23.97;64.33;98606.63;5126152;27;20279;-65
2023/07/27 10:22:12;;;;;;;1.73;1.30;;;;;;;24.23;62.57;98606.50;5126151;27;20291;-65
2023/07/27 10:24:50;;;;;;;1.65;1.23;;;;;;;24.56;65.69;98601.06;5126008;27;20228;-65
2023/07/27 10:27:18;;;;;;;2.10;1.42;;;;;;;24.83;59.53;98600.84;5126073;27;20651;-65
2023/07/27 10:29:48;;;;;;;1.60;1.30;;;;;;;25.11;59.64;98602.19;5125821;27;20209;-65
2023/07/27 10:32:16;;;;;;;1.85;1.38;;;;;;;25.32;58.08;98611.47;5125862;27;20193;-65
2023/07/27 10:34:43;;;;;;;1.75;1.38;;;;;;;25.32;55.87;98612.25;5125568;27;20249;-64
2023/07/27 10:37:11;;;;;;;1.60;1.30;;;;;;;25.20;55.41;98606.16;5125209;27;20201;-65
2023/07/27 10:39:46;;;;;;;3.13;1.40;;;;;;;25.24;54.23;98599.47;5125542;27;20211;-65
2023/07/27 10:42:16;;;;;;;2.25;1.20;;;;;;;25.48;56.23;98595.16;5125865;27;20799;-64
2023/07/27 10:44:45;;;;;;;2.38;1.30;;;;;;;25.58;52.97;98603.31;5125916;27;20319;-65
2023/07/27 10:47:14;;;;;;;2.08;1.20;;;;;;;25.28;52.14;98609.28;5125370;27;20193;-65
2023/07/27 10:49:44;;;;;;;2.38;1.40;;;;;;;25.06;53.40;98590.56;5125616;27;20197;-65
2023/07/27 10:52:15;;;;;;;1.48;1.17;;;;;;;25.39;57.83;98581.56;5125969;27;20201;-65
2023/07/27 10:54:43;;;;;;;2.22;1.30;;;;;;;25.81;55.36;98586.91;5125477;27;20201;-65
2023/07/27 10:57:12;;;;;;;2.38;1.30;;;;;;;26.01;53.33;98583.25;5125625;27;20204;-64
2023/07/27 10:59:40;;;;;;;2.53;1.40;;;;;;;26.05;52.46;98577.34;5125357;27;20228;-64
2023/07/27 11:02:13;;;;;;;1.95;1.45;;;;;;;26.30;53.30;98582.44;5125418;27;20201;-65
2023/07/27 11:04:42;;;;;;;1.67;1.35;;;;;;;26.32;53.46;98574.31;5125220;27;20614;-65
2023/07/27 11:07:10;;;;;;;2.25;1.40;;;;;;;26.23;49.53;98567.81;5125157;27;20205;-65
2023/07/27 11:09:38;;;;;;;1.40;1.30;;;;;;;26.31;53.46;98573.53;5124901;27;20489;-65
2023/07/27 11:12:05;;;;;;;1.70;1.30;;;;;;;26.36;49.98;98576.28;5125103;27;20791;-65
2023/07/27 11:14:32;;;;;;;2.78;1.42;;;;;;;26.63;52.24;98574.06;5124860;27;20707;-65
2023/07/27 11:16:59;;;;;;;1.63;1.20;;;;;;;26.62;49.95;98577.72;5116750;27;20201;-64
2023/07/27 11:19:27;;;;;;;2.08;1.48;;;;;;;26.63;49.18;98586.38;5111585;28;20251;-65
2023/07/27 11:21:57;;;;;;;2.10;1.40;;;;;;;26.56;49.98;98578.63;5111508;28;20209;-64
2023/07/27 11:24:25;;;;;;;3.20;1.35;;;;;;;26.51;50.67;98575.88;5111672;27;20206;-64
2023/07/27 11:26:53;;;;;;;2.78;1.42;;;;;;;26.32;51.17;98577.75;5111048;28;20595;-65
2023/07/27 11:29:20;;;;;;;2.25;1.52;;;;;;;26.02;50.69;98566.50;5111224;27;20205;-64
2023/07/27 11:31:58;;;;;;;3.00;1.45;;;;;;;26.35;52.48;98556.31;5111443;28;20209;-64
2023/07/27 11:34:27;;;;;;;2.75;1.52;;;;;;;26.52;50.28;98566.97;5111277;28;20201;-65
2023/07/27 11:36:57;;;;;;;1.70;1.38;;;;;;;26.64;51.09;98559.09;5110923;28;20232;-64
2023/07/27 11:39:24;;;;;;;1.50;1.35;;;;;;;26.63;49.07;98552.28;5110857;28;20373;-64
2023/07/27 11:41:52;;;;;;;2.55;1.63;;;;;;;26.62;49.94;98561.19;5110669;28;20708;-64
2023/07/27 11:44:21;;;;;;;4.00;1.92;;;;;;;26.55;49.15;98560.47;5110858;28;20205;-65
2023/07/27 11:46:50;;;;;;;2.17;1.65;;;;;;;26.34;48.08;98559.97;5110657;28;20244;-64
2023/07/27 11:49:18;;;;;;;2.08;1.48;;;;;;;26.37;50.71;98553.47;5111005;28;20194;-65
2023/07/27 11:51:46;;;;;;;2.15;1.60;;;;;;;26.27;48.46;98554.06;5111068;28;20706;-65
2023/07/27 11:54:23;;;;;;;1.45;1.33;;;;;;;26.47;47.72;98569.47;5110724;27;20209;-64
2023/07/27 11:56:51;;;;;;;2.58;1.58;;;;;;;26.32;46.84;98567.25;5110685;28;20205;-66
2023/07/27 11:59:19;;;;;;;2.58;1.48;;;;;;;26.33;48.08;98568.06;5110567;28;20201;-67
2023/07/27 12:01:46;;;;;;;1.63;1.35;;;;;;;26.31;47.26;98555.19;5110417;28;20225;-65
2023/07/27 12:04:13;;;;;;;1.98;1.55;;;;;;;26.46;47.65;98564.44;5110565;28;20193;-65
2023/07/27 12:06:40;;;;;;;1.80;1.48;;;;;;;26.61;48.18;98570.06;5110389;28;20229;-65
2023/07/27 12:09:07;;;;;;;1.40;1.20;;;;;;;26.55;46.71;98586.69;5110573;28;20201;-66
2023/07/27 12:11:35;;;;;;;1.80;1.40;;;;;;;26.70;47.44;98573.94;5110282;28;20202;-66
2023/07/27 12:14:04;;;;;;;2.25;1.45;;;;;;;26.79;45.39;98577.84;5110301;28;20452;-66
2023/07/27 12:16:37;;;;;;;2.40;1.50;;;;;;;26.89;46.38;98576.47;5110061;28;20278;-66
2023/07/27 12:19:03;;;;;;;1.80;1.27;;;;;;;26.87;45.69;98580.09;5110041;28;20251;-66
2023/07/27 12:21:30;;;;;;;1.95;1.35;;;;;;;26.80;46.15;98568.13;5110336;28;20221;-65
2023/07/27 12:24:01;;;;;;;1.63;1.30;;;;;;;26.67;44.68;98584.09;5110304;28;20198;-66
2023/07/27 12:26:27;;;;;;;1.60;1.30;;;;;;;26.87;46.79;98564.34;5110460;28;20608;-67
2023/07/27 12:28:56;;;;;;;6.40;1.70;;;;;;;26.54;44.19;98585.13;5109642;27;20208;-66
2023/07/27 12:31:23;;;;;;;1.58;1.40;;;;;;;26.67;45.68;98584.88;5109967;27;20201;-66
2023/07/27 12:33:49;;;;;;;2.05;1.42;;;;;;;26.80;46.55;98568.94;5109844;28;20228;-65
2023/07/27 12:36:16;;;;;;;6.10;1.77;;;;;;;26.90;44.40;98570.97;5109621;28;20697;-67
2023/07/27 12:38:43;;;;;;;5.68;1.60;;;;;;;26.82;45.89;98581.78;5109851;28;20269;-67
2023/07/27 12:41:10;;;;;;;2.47;1.70;;;;;;;26.68;43.42;98585.69;5109709;28;20197;-66
2023/07/27 12:43:37;;;;;;;1.83;1.40;;;;;;;26.77;44.39;98581.72;5109463;28;20196;-66
2023/07/27 12:46:05;;;;;;;3.67;1.50;;;;;;;26.94;46.94;98584.44;5109387;28;20725;-67
2023/07/27 12:48:32;;;;;;;1.55;1.38;;;;;;;26.72;43.44;98598.13;5109542;28;20198;-67
2023/07/27 12:50:59;;;;;;;1.25;1.15;;;;;;;26.69;45.36;98566.31;5109655;28;20204;-66
2023/07/27 12:53:26;;;;;;;1.80;1.38;;;;;;;26.56;44.03;98577.81;5109965;28;20596;-66
2023/07/27 12:55:53;;;;;;;1.73;1.40;;;;;;;26.63;43.80;98589.00;5109500;28;20201;-66
2023/07/27 12:58:20;;;;;;;2.15;1.30;;;;;;;26.73;44.63;98593.66;5109509;28;20668;-67
2023/07/27 13:00:46;;;;;;;1.52;1.30;;;;;;;26.56;42.85;98602.22;5109252;28;20206;-66
2023/07/27 13:03:15;;;;;;;1.88;1.58;;;;;;;26.79;45.08;98571.75;5109395;28;20665;-66
2023/07/27 13:05:42;;;;;;;1.90;1.50;;;;;;;26.90;42.92;98576.22;5108992;28;20616;-66
2023/07/27 13:08:08;;;;;;;1.98;1.50;;;;;;;26.82;42.82;98577.38;5109212;28;20259;-66
2023/07/27 13:10:35;;;;;;;3.15;1.50;;;;;;;26.94;45.44;98584.44;5108977;28;20189;-66
2023/07/27 13:13:02;;;;;;;1.88;1.50;;;;;;;27.01;44.03;98588.53;5109079;28;20262;-67
2023/07/27 13:15:29;;;;;;;2.42;1.30;;;;;;;26.95;44.33;98567.66;5108954;28;20201;-66
2023/07/27 13:17:56;;;;;;;3.05;1.27;;;;;;;26.83;43.40;98588.66;5108994;28;20198;-66
2023/07/27 13:20:24;;;;;;;1.67;1.45;;;;;;;26.85;45.09;98570.88;5109038;28;20205;-66
2023/07/27 13:22:51;;;;;;;1.85;1.45;;;;;;;26.79;43.63;98584.88;5109402;28;20201;-67
2023/07/27 13:25:18;;;;;;;1.80;1.48;;;;;;;26.94;43.47;98590.47;5108672;28;20204;-67
2023/07/27 13:27:45;;;;;;;2.35;1.60;;;;;;;26.97;43.18;98586.59;5108685;28;20197;-67
2023/07/27 13:30:12;;;;;;;2.20;1.58;;;;;;;26.99;43.42;98577.44;5108714;28;20206;-67
2023/07/27 13:32:39;;;;;;;2.38;1.50;;;;;;;26.86;43.20;98578.50;5108857;28;20572;-65
2023/07/27 13:35:07;;;;;;;2.22;1.52;;;;;;;26.98;43.29;98575.06;5108483;28;20198;-67
2023/07/27 13:37:36;;;;;;;1.58;1.38;;;;;;;26.95;42.18;98586.03;5109094;28;20198;-67
2023/07/27 13:40:03;;;;;;;2.97;1.35;;;;;;;26.68;44.31;98586.50;5108125;28;20200;-66
2023/07/27 13:42:30;;;;;;;1.40;1.20;;;;;;;26.48;42.15;98597.28;5108823;28;20256;-67
2023/07/27 13:44:56;;;;;;;3.20;1.50;;;;;;;26.47;43.96;98600.09;5108549;28;20205;-66
2023/07/27 13:47:23;;;;;;;2.08;1.48;;;;;;;26.61;44.36;98596.28;5108709;28;20240;-66
2023/07/27 13:49:50;;;;;;;1.70;1.33;;;;;;;26.62;43.44;98596.06;5108503;28;20616;-66
2023/07/27 13:52:18;;;;;;;1.90;1.45;;;;;;;26.66;42.97;98599.03;5108656;28;20680;-67
2023/07/27 13:54:46;;;;;;;2.15;1.55;;;;;;;26.51;42.98;98596.84;5108324;28;20225;-67
2023/07/27 13:57:13;;;;;;;1.80;1.30;;;;;;;26.57;44.14;98592.53;5108714;28;20505;-66
2023/07/27 13:59:40;;;;;;;2.03;1.65;;;;;;;26.67;43.32;98600.63;5108322;28;20594;-66
2023/07/27 14:02:07;;;;;;;1.60;1.33;;;;;;;26.63;43.14;98607.34;5107677;28;20204;-66
2023/07/27 14:04:34;;;;;;;1.98;1.35;;;;;;;26.57;43.24;98600.38;5107289;28;20292;-66
2023/07/27 14:07:01;;;;;;;2.45;1.33;;;;;;;26.59;44.34;98598.34;5108204;28;20229;-66